Time;durP1;ratioP1;P1;durP2;ratioP2;P2;SDS_P1;SDS_P2;PMS_P1;PMS_P2;Temp;Humidity;BMP_temperature;BMP_pressure;BME280_temperature;BME280_humidity;BME280_pressure;Samples;Min_cycle;Max_cycle;Signal;HPM_P1;HPM_P2
2023/11/25 00:01:50;;;;;;;11.30;4.40;;;;;;;9.14;45.53;97918.52;107844;1257;72705;-67
2023/11/25 00:04:19;;;;;;;13.90;5.70;;;;;;;9.37;45.13;97921.35;107999;1256;61074;-67
2023/11/25 00:06:45;;;;;;;12.50;4.80;;;;;;;9.30;45.28;97924.32;107993;1257;60347;-67
2023/11/25 00:09:15;;;;;;;10.00;5.00;;;;;;;9.22;45.36;97924.80;107953;1257;73031;-67
2023/11/25 00:11:42;;;;;;;11.80;5.50;;;;;;;9.23;45.33;97925.14;107977;1260;70291;-67
2023/11/25 00:14:08;;;;;;;14.20;5.60;;;;;;;9.33;45.06;97919.39;107974;1257;72338;-67
2023/11/25 00:16:35;;;;;;;19.50;6.40;;;;;;;9.30;45.09;97924.29;107950;1256;59653;-66
2023/11/25 00:19:05;;;;;;;14.40;6.00;;;;;;;9.27;45.19;97924.30;108128;1257;60081;-67
2023/11/25 00:21:32;;;;;;;12.40;6.20;;;;;;;9.43;44.70;97925.57;108104;1255;73166;-67
2023/11/25 00:23:59;;;;;;;17.10;5.80;;;;;;;9.48;44.60;97926.23;108170;1253;59611;-67
2023/11/25 00:26:25;;;;;;;14.60;6.20;;;;;;;9.35;44.83;97926.59;108203;1256;59625;-67
2023/11/25 00:28:56;;;;;;;;;;;;;;;9.31;44.77;97926.15;108191;1254;60938;-66
2023/11/25 00:31:23;;;;;;;10.60;5.40;;;;;;;9.42;44.57;97926.09;108287;1253;59946;-67
2023/11/25 00:33:49;;;;;;;13.00;5.50;;;;;;;9.31;44.59;97927.59;108149;1254;72765;-67
2023/11/25 00:36:16;;;;;;;11.40;5.60;;;;;;;9.26;44.84;97921.92;108192;1254;70636;-67
2023/11/25 00:38:43;;;;;;;11.10;4.80;;;;;;;9.20;45.02;97922.00;108289;1254;70214;-67
2023/11/25 00:41:09;;;;;;;14.20;5.50;;;;;;;9.12;45.21;97927.10;108139;1254;61307;-67
2023/11/25 00:43:36;;;;;;;14.10;5.50;;;;;;;9.16;45.00;97931.70;108173;1254;58975;-67
2023/11/25 00:46:03;;;;;;;14.50;5.80;;;;;;;9.22;44.97;97930.64;108229;1254;71939;-66
2023/11/25 00:48:31;;;;;;;14.20;6.20;;;;;;;9.14;45.09;97938.48;108245;1253;70211;-67
2023/11/25 00:51:17;;;;;;;13.10;5.40;;;;;;;9.21;45.04;97938.04;108202;1254;72645;-66
2023/11/25 00:53:56;;;;;;;14.60;6.00;;;;;;;9.09;45.40;97939.20;108397;1256;61027;-66
2023/11/25 00:56:23;;;;;;;11.60;5.00;;;;;;;9.14;45.40;97943.92;108324;1254;59563;-66
2023/11/25 00:58:49;;;;;;;12.80;5.70;;;;;;;9.12;45.36;97942.82;108319;1254;73610;-66
2023/11/25 01:01:16;;;;;;;8.80;5.00;;;;;;;9.10;45.61;97941.40;108295;1251;70236;-64
2023/11/25 01:03:43;;;;;;;13.00;5.60;;;;;;;9.19;45.38;97944.80;108298;1254;72315;-67
2023/11/25 01:06:10;;;;;;;12.30;5.70;;;;;;;9.13;45.55;97946.77;108354;1251;61266;-67
2023/11/25 01:08:37;;;;;;;14.10;6.00;;;;;;;9.08;45.62;97944.64;108301;1251;59509;-68
2023/11/25 01:11:05;;;;;;;13.40;5.70;;;;;;;9.03;45.82;97943.40;108276;1251;73023;-67
2023/11/25 01:13:31;;;;;;;11.50;5.60;;;;;;;9.14;45.47;97942.34;108240;1252;70061;-67
2023/11/25 01:16:00;;;;;;;14.20;5.80;;;;;;;9.12;45.35;97945.48;108240;1251;72753;-67
2023/11/25 01:18:27;;;;;;;14.40;5.70;;;;;;;9.02;45.52;97944.88;108287;1252;60208;-67
2023/11/25 01:20:57;;;;;;;19.20;6.60;;;;;;;9.13;45.29;97951.68;108231;1251;60186;-67
2023/11/25 01:23:25;;;;;;;11.80;5.30;;;;;;;8.89;45.68;97948.16;108234;1255;73011;-67
2023/11/25 01:25:51;;;;;;;11.10;5.00;;;;;;;8.74;45.94;97947.41;108313;1251;70130;-67
2023/11/25 01:28:30;;;;;;;15.10;6.20;;;;;;;8.72;46.05;97951.56;108280;1251;72689;-67
2023/11/25 01:30:57;;;;;;;14.30;5.40;;;;;;;8.80;45.91;97948.78;108317;1252;60414;-68
2023/11/25 01:33:25;;;;;;;10.60;5.70;;;;;;;8.86;45.69;97945.05;108310;1251;60347;-67
2023/11/25 01:35:52;;;;;;;13.80;6.30;;;;;;;8.86;45.57;97939.06;108259;1251;72566;-67
2023/11/25 01:38:19;;;;;;;16.50;5.90;;;;;;;8.81;45.50;97932.77;108244;1251;70359;-67
2023/11/25 01:40:46;;;;;;;19.60;6.60;;;;;;;8.49;46.13;97934.09;108218;1251;72491;-67
2023/11/25 01:43:14;;;;;;;12.70;5.90;;;;;;;8.47;46.33;97931.80;108209;1251;61448;-67
2023/11/25 01:45:42;;;;;;;10.80;5.70;;;;;;;8.64;46.02;97931.39;108246;1251;60293;-67
2023/11/25 01:48:08;;;;;;;15.70;5.90;;;;;;;8.64;45.95;97936.51;108281;1251;73643;-67
2023/11/25 01:50:36;;;;;;;13.10;5.70;;;;;;;8.40;46.50;97944.80;108297;1251;70285;-66
2023/11/25 01:53:04;;;;;;;13.50;5.90;;;;;;;8.47;46.47;97951.94;108272;1251;72545;-66
2023/11/25 01:55:41;;;;;;;17.50;6.40;;;;;;;8.40;46.59;97963.16;108248;1251;61368;-67
2023/11/25 01:58:07;;;;;;;14.60;5.30;;;;;;;8.26;46.69;97969.45;108225;1251;60328;-67
2023/11/25 02:00:37;;;;;;;14.20;6.80;;;;;;;8.06;47.17;97975.42;108215;1252;73884;-66
2023/11/25 02:03:05;;;;;;;15.20;6.30;;;;;;;8.21;46.93;97985.29;108201;1253;69665;-67
2023/11/25 02:05:32;;;;;;;14.10;6.20;;;;;;;8.26;46.89;97993.05;108051;1252;71453;-67
2023/11/25 02:07:59;;;;;;;17.70;6.20;;;;;;;8.41;46.66;97992.66;108220;1253;60396;-67
2023/11/25 02:22:10;;;;;;;14.20;6.30;;;;;;;8.11;47.68;98002.95;105387;1287;613797;-66
2023/11/25 02:24:38;;;;;;;13.40;6.20;;;;;;;8.86;46.19;98008.60;107148;1266;106617;-67
2023/11/25 02:27:04;;;;;;;16.80;6.10;;;;;;;8.83;46.16;98012.45;107251;1266;60181;-67
2023/11/25 02:29:32;;;;;;;13.20;5.60;;;;;;;8.71;46.43;98019.87;107258;1266;70997;-67
2023/11/25 02:31:59;;;;;;;9.70;5.40;;;;;;;8.66;46.68;98027.70;107807;1257;68934;-66
2023/11/25 02:34:26;;;;;;;12.70;5.70;;;;;;;8.48;46.92;98033.52;107707;1260;73254;-66
2023/11/25 02:39:57;;;;;;;12.30;5.40;;;;;;;8.74;46.32;98033.84;107711;1259;60327;-66
2023/11/25 02:42:26;;;;;;;11.40;5.60;;;;;;;8.58;46.51;98034.46;107692;1260;71414;-66
2023/11/25 02:44:53;;;;;;;12.50;5.30;;;;;;;8.65;46.42;98036.14;107783;1258;70374;-66
2023/11/25 02:47:23;;;;;;;13.40;5.70;;;;;;;8.50;46.60;98041.98;107816;1259;73256;-66
2023/11/25 02:49:50;;;;;;;16.20;6.30;;;;;;;8.56;46.50;98048.58;107713;1259;59819;-66
2023/11/25 02:52:16;;;;;;;13.20;5.40;;;;;;;8.67;46.15;98050.18;107833;1258;59368;-66
2023/11/25 02:54:44;;;;;;;14.40;6.00;;;;;;;8.74;46.06;98052.58;107739;1260;73325;-66
2023/11/25 02:57:11;;;;;;;14.10;5.20;;;;;;;8.90;45.80;98059.57;107822;1259;68992;-65
2023/11/25 02:59:39;;;;;;;12.90;6.10;;;;;;;8.92;45.68;98065.92;107698;1260;70936;-65
2023/11/25 03:02:09;;;;;;;10.30;5.20;;;;;;;8.91;45.64;98072.79;107619;1260;60859;-66
2023/11/25 03:04:45;;;;;;;18.80;6.80;;;;;;;8.94;45.59;98064.94;107894;1259;59641;-66
2023/11/25 03:07:13;;;;;;;14.10;6.40;;;;;;;8.92;45.50;98063.13;107726;1258;73588;-66
2023/11/25 03:09:42;;;;;;;13.30;6.00;;;;;;;8.81;45.52;98066.27;107849;1259;70539;-66
2023/11/25 03:12:09;;;;;;;14.50;5.30;;;;;;;8.80;45.78;98075.10;108002;1255;73094;-66
2023/11/25 03:14:35;;;;;;;11.80;5.60;;;;;;;8.88;45.65;98078.08;107936;1256;61197;-66
2023/11/25 03:17:02;;;;;;;12.40;6.10;;;;;;;8.89;45.52;98073.63;107975;1256;60169;-66
2023/11/25 03:19:29;;;;;;;14.50;6.40;;;;;;;8.75;45.68;98069.97;108011;1255;71823;-66
2023/11/25 03:21:56;;;;;;;14.80;6.00;;;;;;;8.76;45.70;98067.09;107935;1256;70684;-66
2023/11/25 03:24:24;;;;;;;11.80;6.20;;;;;;;8.79;45.22;98067.44;107965;1256;72910;-66
2023/11/25 03:26:50;;;;;;;12.90;5.70;;;;;;;8.92;45.04;98077.64;107984;1257;61045;-66
2023/11/25 03:29:18;;;;;;;10.60;5.80;;;;;;;8.99;44.62;98090.02;107981;1257;60068;-66
2023/11/25 03:31:45;;;;;;;13.80;5.30;;;;;;;8.47;45.15;98100.89;107944;1259;73619;-66
2023/11/25 03:34:12;;;;;;;12.20;6.40;;;;;;;8.54;45.34;98108.02;108000;1256;71096;-66
2023/11/25 03:36:40;;;;;;;10.40;5.60;;;;;;;8.56;45.09;98106.83;108030;1256;73576;-66
2023/11/25 03:39:09;;;;;;;14.00;5.80;;;;;;;8.55;45.13;98103.71;107989;1256;59767;-66
2023/11/25 03:41:36;;;;;;;12.00;5.90;;;;;;;8.69;45.04;98094.17;107997;1256;60175;-66
2023/11/25 03:44:03;;;;;;;11.00;5.60;;;;;;;8.67;44.93;98087.44;108014;1256;73000;-66
2023/11/25 03:46:30;;;;;;;12.50;5.30;;;;;;;8.49;45.24;98089.75;108194;1256;69132;-66
2023/11/25 03:48:57;;;;;;;13.00;5.50;;;;;;;8.48;45.07;98086.65;108207;1257;72618;-67
2023/11/25 03:51:24;;;;;;;11.90;5.50;;;;;;;8.46;45.19;98080.84;107999;1259;61017;-66
2023/11/25 03:53:51;;;;;;;13.20;6.10;;;;;;;8.40;45.36;98079.65;107931;1256;60296;-66
2023/11/25 03:56:17;;;;;;;15.60;5.40;;;;;;;8.42;45.25;98092.98;107962;1255;72904;-66
2023/11/25 03:58:44;;;;;;;13.90;5.80;;;;;;;8.48;45.32;98101.75;107894;1256;70857;-66
2023/11/25 04:01:11;;;;;;;15.70;6.10;;;;;;;8.61;45.05;98107.94;107958;1255;73234;-66
2023/11/25 04:03:38;;;;;;;11.20;5.90;;;;;;;8.44;45.47;98116.45;107958;1256;61302;-66
2023/11/25 04:06:05;;;;;;;16.50;6.00;;;;;;;8.56;45.38;98118.20;107829;1257;59279;-66
2023/11/25 04:08:35;;;;;;;14.60;6.10;;;;;;;8.57;45.23;98120.26;108009;1256;72873;-66
2023/11/25 04:11:04;;;;;;;15.90;6.00;;;;;;;8.53;45.40;98124.13;107849;1257;69539;-66
2023/11/25 04:13:34;;;;;;;10.60;5.50;;;;;;;8.58;45.37;98129.78;107983;1256;71565;-66
2023/11/25 04:16:02;;;;;;;13.30;5.70;;;;;;;8.70;45.26;98138.20;107983;1257;61169;-66
2023/11/25 04:18:30;;;;;;;14.40;6.00;;;;;;;8.51;45.46;98138.08;108048;1256;59522;-66
2023/11/25 04:20:57;;;;;;;15.50;5.90;;;;;;;8.68;45.20;98140.75;108030;1256;73022;-66
2023/11/25 04:23:24;;;;;;;12.10;5.70;;;;;;;8.72;45.13;98141.04;107941;1256;70924;-66
2023/11/25 04:25:51;;;;;;;12.20;5.60;;;;;;;8.78;44.98;98147.63;108010;1256;72486;-66
2023/11/25 04:28:19;;;;;;;10.60;5.70;;;;;;;8.66;45.18;98147.86;107997;1257;60692;-66
2023/11/25 04:30:45;;;;;;;13.90;6.30;;;;;;;8.71;45.16;98148.92;108034;1255;60503;-66
2023/11/25 04:33:14;;;;;;;14.20;6.00;;;;;;;8.77;44.70;98154.55;107979;1259;73473;-66
2023/11/25 04:35:40;;;;;;;9.70;5.00;;;;;;;8.81;44.73;98166.20;108000;1256;70752;-66
2023/11/25 04:38:08;;;;;;;12.40;6.10;;;;;;;8.73;44.90;98164.77;107798;1260;73256;-66
2023/11/25 04:40:34;;;;;;;13.30;5.10;;;;;;;8.75;44.82;98166.02;107983;1256;60936;-66
2023/11/25 04:43:01;;;;;;;13.80;5.90;;;;;;;8.76;44.91;98163.71;107959;1257;60261;-66
2023/11/25 04:45:28;;;;;;;14.00;6.90;;;;;;;8.57;45.04;98160.83;107943;1259;73361;-66
2023/11/25 04:47:55;;;;;;;13.10;6.90;;;;;;;8.57;44.93;98155.71;107901;1257;70455;-66
2023/11/25 04:50:22;;;;;;;15.20;6.40;;;;;;;8.53;44.95;98156.13;107924;1256;72911;-65
2023/11/25 04:52:49;;;;;;;11.00;6.00;;;;;;;8.38;44.81;98159.13;108036;1259;61663;-66
2023/11/25 04:55:15;;;;;;;17.90;8.70;;;;;;;8.43;44.46;98164.27;107965;1257;60234;-66
2023/11/25 04:57:44;;;;;;;18.40;8.70;;;;;;;8.55;44.17;98159.52;108027;1256;72926;-67
2023/11/25 05:00:13;;;;;;;16.80;7.60;;;;;;;8.53;43.96;98158.24;107950;1256;70269;-66
2023/11/25 05:14:53;;;;;;;28.20;11.20;;;;;;;7.97;45.49;98184.19;105730;1283;612064;-81
2023/11/25 05:17:21;;;;;;;27.40;10.70;;;;;;;8.51;44.23;98197.37;107590;1257;128968;-81
2023/11/25 05:19:48;;;;;;;25.90;11.50;;;;;;;8.49;44.12;98195.77;107891;1262;59330;-81
2023/11/25 05:22:15;;;;;;;20.50;10.00;;;;;;;8.34;44.29;98194.84;107897;1257;72194;-81
2023/11/25 05:24:42;;;;;;;20.60;9.60;;;;;;;8.01;44.73;98203.56;107885;1258;69496;-81
2023/11/25 05:38:28;;;;;;;12.60;6.90;;;;;;;6.92;47.13;98224.41;105638;1287;613515;-66
2023/11/25 05:40:57;;;;;;;17.90;7.70;;;;;;;7.38;45.94;98215.30;107056;1266;103502;-67
2023/11/25 05:43:25;;;;;;;21.20;8.70;;;;;;;7.35;46.01;98220.02;107191;1266;60335;-67
2023/11/25 05:45:52;;;;;;;18.00;8.30;;;;;;;7.30;46.08;98224.83;107356;1266;72223;-67
2023/11/25 05:48:22;;;;;;;18.90;9.10;;;;;;;7.42;45.82;98227.13;107262;1267;69977;-66
2023/11/25 05:50:50;;;;;;;29.30;9.50;;;;;;;7.35;45.78;98230.15;107627;1259;72324;-66
2023/11/25 05:53:17;;;;;;;14.50;7.80;;;;;;;7.25;46.22;98231.55;107651;1259;61373;-67
2023/11/25 05:55:44;;;;;;;15.40;8.40;;;;;;;7.31;46.25;98230.70;107654;1259;60000;-66
2023/11/25 05:58:13;;;;;;;18.00;9.20;;;;;;;7.28;46.56;98235.71;107620;1260;72247;-65
2023/11/25 06:00:41;;;;;;;19.40;9.20;;;;;;;7.18;47.13;98239.05;107639;1259;70062;-66
2023/11/25 06:03:09;;;;;;;23.60;10.30;;;;;;;7.12;47.58;98233.83;107628;1257;71207;-67
2023/11/25 06:05:36;;;;;;;24.30;10.70;;;;;;;7.24;47.30;98222.86;107584;1262;59756;-67
2023/11/25 06:08:04;;;;;;;19.30;9.40;;;;;;;7.31;47.18;98224.23;107675;1260;59982;-66
2023/11/25 06:10:31;;;;;;;23.00;10.00;;;;;;;7.28;47.24;98220.36;107673;1258;71873;-67
2023/11/25 06:12:59;;;;;;;17.30;9.00;;;;;;;7.27;47.17;98226.52;107629;1259;69038;-67
2023/11/25 06:15:27;;;;;;;19.00;10.80;;;;;;;7.26;47.61;98247.52;107731;1257;71626;-67
2023/11/25 06:17:55;;;;;;;33.80;16.10;;;;;;;7.15;48.37;98259.10;107624;1260;60891;-66
2023/11/25 06:20:25;;;;;;;51.60;22.60;;;;;;;7.17;48.46;98262.34;107695;1259;60020;-66
2023/11/25 06:22:53;;;;;;;56.50;23.60;;;;;;;7.35;48.48;98260.35;107648;1258;71898;-66
2023/11/25 06:25:22;;;;;;;51.70;23.30;;;;;;;7.44;48.36;98250.05;107665;1260;68869;-66
2023/11/25 06:27:49;;;;;;;59.40;24.90;;;;;;;7.61;47.99;98230.98;107649;1260;70829;-66
2023/11/25 06:30:17;;;;;;;73.90;28.90;;;;;;;7.78;47.91;98220.44;107599;1259;59708;-66
2023/11/25 06:32:44;;;;;;;60.40;25.80;;;;;;;8.00;48.07;98206.95;107591;1260;60033;-66
2023/11/25 06:35:12;;;;;;;50.70;22.40;;;;;;;8.21;47.69;98195.80;107591;1263;71841;-66
2023/11/25 06:37:40;;;;;;;43.30;20.30;;;;;;;8.23;47.32;98196.56;107577;1260;70294;-66
2023/11/25 06:40:12;;;;;;;33.30;15.00;;;;;;;8.27;47.19;98194.23;107539;1259;71820;-66
2023/11/25 06:42:41;;;;;;;44.70;19.30;;;;;;;8.23;47.06;98204.25;107915;1254;60872;-66
2023/11/25 06:45:08;;;;;;;36.40;17.70;;;;;;;8.29;46.81;98219.95;107885;1254;59497;-66
2023/11/25 06:47:37;;;;;;;50.90;19.40;;;;;;;8.28;46.88;98234.02;107835;1260;72745;-67
2023/11/25 06:50:05;;;;;;;34.70;16.90;;;;;;;8.16;47.01;98253.08;107745;1254;68606;-67
2023/11/25 06:52:32;;;;;;;35.30;17.40;;;;;;;8.20;47.20;98249.30;107954;1256;72696;-67
2023/11/25 06:55:00;;;;;;;38.70;18.50;;;;;;;8.34;47.07;98241.92;107908;1254;62896;-67
2023/11/25 06:57:28;;;;;;;36.90;17.40;;;;;;;8.46;47.41;98234.91;108025;1254;59381;-67
2023/11/25 06:59:56;;;;;;;32.80;16.60;;;;;;;8.85;47.73;98232.62;108091;1259;72833;-68
2023/11/25 07:02:26;;;;;;;32.20;16.70;;;;;;;9.05;48.42;98235.80;108090;1254;68925;-67
2023/11/25 07:04:54;;;;;;;29.40;13.10;;;;;;;9.65;48.73;98233.27;108038;1254;72424;-67
2023/11/25 07:07:22;;;;;;;27.80;13.70;;;;;;;10.43;47.20;98229.62;108102;1254;60815;-68
2023/11/25 07:09:49;;;;;;;29.00;13.30;;;;;;;11.05;45.29;98226.86;107975;1254;60019;-67
2023/11/25 07:12:17;;;;;;;24.10;11.20;;;;;;;11.53;43.26;98229.08;107829;1254;72823;-67
2023/11/25 07:14:44;;;;;;;26.20;13.30;;;;;;;12.08;42.33;98231.48;108017;1254;68810;-67
2023/11/25 07:17:12;;;;;;;26.70;11.70;;;;;;;12.67;40.57;98233.05;107997;1254;72469;-68
2023/11/25 07:19:43;;;;;;;23.70;12.60;;;;;;;13.03;39.57;98242.54;108005;1254;61450;-68
2023/11/25 07:22:13;;;;;;;25.10;12.10;;;;;;;13.51;39.07;98242.30;107814;1260;59341;-68
2023/11/25 07:24:42;;;;;;;22.90;11.60;;;;;;;13.90;38.93;98247.47;108025;1254;72823;-67
2023/11/25 07:27:10;;;;;;;22.40;10.60;;;;;;;14.54;37.98;98250.08;107976;1254;68719;-68
2023/11/25 07:29:38;;;;;;;22.50;10.30;;;;;;;15.08;36.60;98253.81;107984;1254;72637;-67
2023/11/25 07:32:05;;;;;;;17.30;9.60;;;;;;;15.50;35.67;98254.79;107997;1254;59752;-68
2023/11/25 07:34:34;;;;;;;19.70;10.30;;;;;;;15.78;34.99;98254.73;108003;1254;60004;-69
2023/11/25 07:37:01;;;;;;;17.70;9.60;;;;;;;15.84;34.07;98253.96;107991;1254;72953;-68
2023/11/25 07:39:29;;;;;;;17.10;8.80;;;;;;;16.01;33.62;98263.27;107973;1254;70005;-67
2023/11/25 07:41:57;;;;;;;22.10;9.90;;;;;;;16.11;33.03;98273.92;107970;1254;71447;-68
2023/11/25 07:44:30;;;;;;;18.00;8.90;;;;;;;16.21;32.73;98272.34;107981;1254;59062;-68
2023/11/25 07:46:59;;;;;;;18.00;9.60;;;;;;;16.25;32.31;98283.80;107998;1254;59368;-68
2023/11/25 07:49:29;;;;;;;18.70;9.20;;;;;;;16.40;32.15;98290.98;108029;1259;71876;-68
2023/11/25 07:51:57;;;;;;;17.10;9.30;;;;;;;16.57;31.60;98297.70;108056;1254;68890;-68
2023/11/25 07:54:24;;;;;;;16.10;9.10;;;;;;;16.59;31.76;98306.06;108008;1254;71400;-68
2023/11/25 07:56:52;;;;;;;17.80;9.70;;;;;;;16.65;30.91;98323.39;108068;1256;59513;-68
2023/11/25 07:59:20;;;;;;;22.50;10.80;;;;;;;16.94;31.42;98335.48;108041;1254;59753;-68
2023/11/25 08:01:48;;;;;;;19.50;11.10;;;;;;;16.99;30.92;98334.13;108198;1256;73178;-67
2023/11/25 08:04:16;;;;;;;22.50;11.70;;;;;;;17.16;30.46;98326.08;107867;1256;69008;-68
2023/11/25 08:06:44;;;;;;;23.50;13.20;;;;;;;17.44;30.42;98319.48;107855;1257;70502;-68
2023/11/25 08:09:12;;;;;;;24.50;12.60;;;;;;;17.93;29.91;98314.39;107833;1260;60038;-67
2023/11/25 08:11:39;;;;;;;24.00;12.10;;;;;;;18.13;29.22;98311.52;107862;1255;60014;-68
2023/11/25 08:14:07;;;;;;;20.40;10.80;;;;;;;18.04;28.67;98317.22;107890;1255;72415;-68
2023/11/25 08:16:34;;;;;;;17.80;8.50;;;;;;;17.61;29.17;98315.96;107829;1256;69973;-67
2023/11/25 08:19:03;;;;;;;17.30;9.00;;;;;;;18.11;29.29;98312.21;107841;1257;72712;-67
2023/11/25 08:21:31;;;;;;;16.10;8.70;;;;;;;18.59;28.52;98309.47;107884;1257;60066;-67
2023/11/25 08:24:00;;;;;;;17.00;8.30;;;;;;;18.64;27.87;98305.68;107873;1260;59907;-68
2023/11/25 08:26:28;;;;;;;17.10;9.40;;;;;;;18.81;28.12;98303.44;107968;1257;71762;-68
2023/11/25 08:28:55;;;;;;;13.20;7.60;;;;;;;18.97;27.54;98303.98;108002;1256;69020;-68
2023/11/25 08:31:23;;;;;;;17.40;8.00;;;;;;;18.64;27.09;98298.94;107883;1256;72753;-66
2023/11/25 08:33:52;;;;;;;14.80;7.70;;;;;;;17.91;27.93;98307.63;107878;1256;59624;-68
2023/11/25 08:36:20;;;;;;;15.50;8.20;;;;;;;17.01;28.91;98302.23;108004;1255;60463;-68
2023/11/25 08:38:51;;;;;;;18.80;10.50;;;;;;;16.50;29.47;98304.71;107766;1256;73066;-68
2023/11/25 08:41:19;;;;;;;18.10;9.80;;;;;;;16.04;30.22;98308.15;107984;1256;69058;-68
2023/11/25 08:43:47;;;;;;;15.70;9.50;;;;;;;15.92;30.47;98304.59;107919;1255;72742;-67
2023/11/25 08:46:19;;;;;;;17.80;9.40;;;;;;;15.67;30.77;98305.54;107981;1257;59106;-67
2023/11/25 08:48:47;;;;;;;19.10;10.10;;;;;;;15.11;31.49;98304.51;107934;1256;59557;-67
2023/11/25 08:51:15;;;;;;;20.40;10.90;;;;;;;14.87;32.13;98303.13;107813;1257;72512;-68
2023/11/25 08:53:44;;;;;;;18.70;10.50;;;;;;;14.83;32.27;98309.51;107833;1255;69273;-68
2023/11/25 08:56:13;;;;;;;23.70;11.40;;;;;;;14.62;32.29;98318.45;107917;1257;72682;-68
2023/11/25 08:58:40;;;;;;;24.50;11.50;;;;;;;14.55;32.64;98322.92;107955;1256;59751;-67
2023/11/25 09:01:08;;;;;;;22.90;10.30;;;;;;;14.39;32.55;98322.75;107985;1254;59435;-67
2023/11/25 09:03:36;;;;;;;20.30;11.20;;;;;;;14.21;32.99;98324.55;108005;1254;71884;-67
2023/11/25 09:06:05;;;;;;;21.80;10.50;;;;;;;14.01;33.06;98326.31;108027;1254;68564;-67
2023/11/25 09:08:32;;;;;;;15.90;9.40;;;;;;;13.88;33.15;98317.88;107991;1254;72697;-67
2023/11/25 09:11:01;;;;;;;23.70;11.30;;;;;;;13.86;33.62;98312.53;107965;1256;59670;-67
2023/11/25 09:13:28;;;;;;;20.10;11.60;;;;;;;13.83;33.60;98307.70;107999;1254;59330;-67
2023/11/25 09:15:59;;;;;;;;;;;;;;;13.80;33.57;98304.05;108049;1254;73001;-67
2023/11/25 09:18:27;;;;;;;25.00;12.80;;;;;;;13.74;33.93;98298.02;108037;1254;68371;-67
2023/11/25 09:20:54;;;;;;;24.50;13.40;;;;;;;13.89;33.85;98292.39;107993;1254;72453;-67
2023/11/25 09:23:22;;;;;;;26.70;14.00;;;;;;;14.25;33.72;98290.19;108027;1254;59688;-67
2023/11/25 09:25:50;;;;;;;25.20;12.70;;;;;;;14.78;33.76;98288.55;108001;1254;59526;-67
2023/11/25 09:28:18;;;;;;;26.30;13.60;;;;;;;15.19;32.82;98293.54;108031;1254;71728;-67
2023/11/25 09:30:46;;;;;;;35.30;17.00;;;;;;;15.44;32.40;98296.67;108017;1254;69121;-67
2023/11/25 09:33:14;;;;;;;26.80;14.20;;;;;;;15.79;31.51;98293.86;108011;1259;72527;-67
2023/11/25 09:35:41;;;;;;;29.30;14.80;;;;;;;16.26;30.85;98300.55;108081;1254;59484;-67
2023/11/25 09:38:08;;;;;;;29.60;14.70;;;;;;;16.66;30.48;98315.20;108033;1258;59519;-67
2023/11/25 09:40:36;;;;;;;29.70;14.50;;;;;;;17.01;29.66;98330.23;107869;1254;71760;-67
2023/11/25 09:43:03;;;;;;;28.30;14.70;;;;;;;17.37;29.20;98329.80;108038;1254;70181;-68
2023/11/25 09:45:31;;;;;;;29.90;13.20;;;;;;;17.29;28.73;98324.59;108028;1255;72522;-67
2023/11/25 09:47:58;;;;;;;23.90;12.70;;;;;;;17.40;28.66;98322.36;107850;1254;60677;-67
2023/11/25 09:50:26;;;;;;;25.70;13.30;;;;;;;17.51;28.18;98318.70;107893;1254;59270;-67
2023/11/25 09:52:56;;;;;;;22.70;11.80;;;;;;;17.11;28.49;98311.41;108096;1254;74322;-67
2023/11/25 09:55:24;;;;;;;24.00;12.50;;;;;;;17.51;28.66;98322.04;108018;1254;70298;-67
2023/11/25 09:58:01;;;;;;;29.20;12.80;;;;;;;17.96;28.42;98323.65;107987;1256;71716;-67
2023/11/25 10:00:29;;;;;;;20.90;12.00;;;;;;;18.56;27.31;98327.63;107771;1255;60443;-68
2023/11/25 10:02:57;;;;;;;21.70;11.90;;;;;;;18.90;27.41;98321.89;107956;1256;60562;-67
2023/11/25 10:05:25;;;;;;;23.30;11.70;;;;;;;19.41;27.01;98319.84;108060;1256;72672;-68
2023/11/25 10:07:53;;;;;;;21.40;10.80;;;;;;;20.06;26.64;98318.92;108031;1255;68910;-67
2023/11/25 10:10:23;;;;;;;24.40;11.00;;;;;;;20.80;25.40;98316.85;107975;1260;71889;-68
2023/11/25 10:12:52;;;;;;;19.30;10.40;;;;;;;20.78;24.54;98312.41;108019;1256;60326;-67
2023/11/25 10:15:21;;;;;;;22.60;11.50;;;;;;;20.52;24.30;98316.13;107957;1257;60469;-68
2023/11/25 10:17:49;;;;;;;21.70;11.00;;;;;;;19.94;24.93;98321.46;107979;1255;73824;-67
2023/11/25 10:20:20;;;;;;;22.50;10.90;;;;;;;19.51;25.20;98324.61;107871;1257;69923;-67
2023/11/25 10:22:58;;;;;;;19.50;10.80;;;;;;;19.29;25.36;98330.80;107956;1256;71455;-68
2023/11/25 10:25:26;;;;;;;22.20;12.20;;;;;;;19.08;25.50;98325.63;107941;1256;60680;-68
2023/11/25 10:27:54;;;;;;;27.90;13.40;;;;;;;19.24;25.67;98322.09;108009;1256;60437;-68
2023/11/25 10:30:23;;;;;;;24.60;12.50;;;;;;;19.66;26.14;98321.50;107977;1256;73193;-68
2023/11/25 10:32:54;;;;;;;23.40;12.00;;;;;;;20.27;25.50;98312.48;107950;1256;70052;-68
2023/11/25 10:35:24;;;;;;;;;;;;;;;21.05;24.67;98314.29;107889;1256;70619;-68
2023/11/25 10:37:52;;;;;;;23.00;13.10;;;;;;;21.28;24.00;98319.09;107936;1256;60345;-68
2023/11/25 10:40:21;;;;;;;23.20;14.60;;;;;;;21.44;23.84;98317.64;107933;1255;60780;-68
2023/11/25 10:42:50;;;;;;;20.10;11.00;;;;;;;21.62;23.71;98315.21;107901;1256;73812;-68
2023/11/25 10:45:18;;;;;;;21.10;11.50;;;;;;;21.72;23.18;98318.16;107976;1256;70085;-68
2023/11/25 10:47:46;;;;;;;30.20;12.70;;;;;;;21.62;23.31;98316.48;108007;1255;71084;-68
2023/11/25 10:50:14;;;;;;;26.60;11.30;;;;;;;21.67;23.37;98313.16;107843;1256;60511;-68
2023/11/25 10:52:42;;;;;;;21.30;11.60;;;;;;;21.88;23.08;98312.62;107971;1255;59618;-68
2023/11/25 10:55:15;;;;;;;22.10;12.50;;;;;;;22.06;23.02;98309.89;107886;1257;72443;-68
2023/11/25 10:57:42;;;;;;;19.00;10.10;;;;;;;21.99;22.73;98314.98;108036;1256;69859;-68
2023/11/25 11:00:10;;;;;;;17.40;10.50;;;;;;;21.39;22.41;98321.08;107795;1261;72447;-68
2023/11/25 11:02:54;;;;;;;15.20;9.00;;;;;;;20.68;22.84;98327.02;108031;1254;60445;-67
2023/11/25 11:06:05;;;;;;;21.90;9.90;;;;;;;19.75;23.57;98337.86;108090;1254;59533;-67
2023/11/25 11:08:36;;;;;;;17.50;10.50;;;;;;;19.51;24.38;98336.77;107786;1259;72919;-67
2023/11/25 11:11:07;;;;;;;25.00;12.40;;;;;;;19.33;24.83;98333.23;108079;1254;68740;-68
2023/11/25 11:14:12;;;;;;;24.10;13.20;;;;;;;19.10;25.23;98330.94;108061;1254;71492;-68
2023/11/25 11:16:39;;;;;;;20.20;10.40;;;;;;;18.64;25.49;98331.75;108043;1254;60539;-67
2023/11/25 11:19:07;;;;;;;25.50;11.70;;;;;;;18.13;26.06;98339.60;108057;1254;59100;-68
2023/11/25 11:21:38;;;;;;;18.40;9.40;;;;;;;17.55;27.03;98347.19;108032;1254;72182;-67
2023/11/25 11:24:07;;;;;;;17.90;10.20;;;;;;;17.15;26.98;98348.47;107995;1254;70945;-67
2023/11/25 11:26:35;;;;;;;19.90;11.00;;;;;;;16.75;27.63;98345.17;107848;1257;71371;-67
2023/11/25 11:29:17;;;;;;;22.10;11.10;;;;;;;16.37;28.21;98344.34;107949;1254;60375;-67
2023/11/25 11:32:02;;;;;;;23.80;11.90;;;;;;;16.15;28.76;98343.49;108011;1254;60441;-67
2023/11/25 11:34:35;;;;;;;21.10;10.40;;;;;;;16.20;28.79;98346.36;107751;1254;72258;-67
2023/11/25 11:37:05;;;;;;;20.80;10.60;;;;;;;16.21;28.45;98348.78;107967;1254;70159;-67
2023/11/25 11:39:32;;;;;;;21.80;10.50;;;;;;;16.27;28.48;98355.47;107958;1254;72449;-67
2023/11/25 11:42:22;;;;;;;18.90;10.50;;;;;;;16.58;28.40;98352.02;107956;1256;60495;-68
2023/11/25 11:45:11;;;;;;;21.50;12.10;;;;;;;16.86;27.96;98361.60;108047;1254;60438;-68
2023/11/25 11:48:02;;;;;;;19.60;11.60;;;;;;;17.09;27.71;98360.38;108012;1254;73151;-67
2023/11/25 11:50:32;;;;;;;23.10;11.60;;;;;;;17.60;27.80;98360.41;108024;1254;68762;-68
2023/11/25 11:52:59;;;;;;;21.40;11.30;;;;;;;17.73;27.06;98366.61;108026;1257;72804;-68
2023/11/25 11:55:46;;;;;;;24.80;11.90;;;;;;;17.56;27.26;98368.45;107967;1254;60318;-68
2023/11/25 11:58:21;;;;;;;23.10;11.50;;;;;;;17.72;27.28;98367.65;107967;1254;59156;-67
2023/11/25 12:01:01;;;;;;;17.50;10.30;;;;;;;17.35;27.26;98368.76;107928;1256;74183;-68
2023/11/25 12:03:32;;;;;;;19.30;10.70;;;;;;;17.20;27.55;98364.70;107935;1256;70273;-67
2023/11/25 12:06:00;;;;;;;;;;;;;;;17.16;27.73;98360.12;107769;1257;72707;-67